Time;durP1;ratioP1;P1;durP2;ratioP2;P2;SDS_P1;SDS_P2;PMS_P1;PMS_P2;Temp;Humidity;BMP_temperature;BMP_pressure;BME280_temperature;BME280_humidity;BME280_pressure;Samples;Min_cycle;Max_cycle;Signal;HPM_P1;HPM_P2
2023/03/13 00:01:16;;;;;;;29.73;8.23;;;;;;;6.86;100.00;100327.31;5012740;28;20223;-71
2023/03/13 00:03:42;;;;;;;31.50;8.30;;;;;;;6.85;100.00;100318.81;5013370;28;20205;-70
2023/03/13 00:06:08;;;;;;;30.40;8.30;;;;;;;6.84;100.00;100319.63;5012508;28;20199;-72
2023/03/13 00:08:33;;;;;;;36.07;12.40;;;;;;;6.82;100.00;100318.72;5011370;28;20179;-68
2023/03/13 00:11:08;;;;;;;35.40;9.27;;;;;;;6.83;100.00;100314.50;5013020;28;20854;-68
2023/03/13 00:13:34;;;;;;;25.73;8.53;;;;;;;6.80;100.00;100310.19;5011150;28;20213;-68
2023/03/13 00:16:07;;;;;;;24.00;7.93;;;;;;;6.81;100.00;100316.16;5014261;28;20191;-69
2023/03/13 00:18:33;;;;;;;32.20;8.00;;;;;;;6.76;100.00;100308.38;5009038;28;20202;-68
2023/03/13 00:21:00;;;;;;;34.17;8.57;;;;;;;6.75;100.00;100303.25;5013082;28;20580;-68
2023/03/13 00:23:26;;;;;;;23.77;7.87;;;;;;;6.74;100.00;100293.91;5010124;28;20198;-68
2023/03/13 00:25:59;;;;;;;30.90;8.67;;;;;;;6.75;100.00;100298.16;5013972;28;20221;-69
2023/03/13 00:28:27;;;;;;;28.03;8.83;;;;;;;6.72;100.00;100295.56;5014127;28;20206;-70
2023/03/13 00:31:09;;;;;;;26.13;8.90;;;;;;;6.71;100.00;100296.38;5016049;28;20246;-69
2023/03/13 00:33:37;;;;;;;36.23;9.47;;;;;;;6.68;100.00;100288.69;5024608;28;20213;-70
2023/03/13 00:36:06;;;;;;;31.33;8.40;;;;;;;6.64;100.00;100280.09;5017139;28;20199;-68
2023/03/13 00:38:32;;;;;;;34.03;9.47;;;;;;;6.65;100.00;100283.50;5008093;28;20218;-70
2023/03/13 00:40:59;;;;;;;26.70;8.63;;;;;;;6.63;100.00;100280.91;5009902;28;20273;-71
2023/03/13 00:43:26;;;;;;;28.53;8.53;;;;;;;6.63;100.00;100277.53;5013073;28;20590;-71
2023/03/13 00:45:51;;;;;;;31.87;8.63;;;;;;;6.61;100.00;100274.94;5017537;28;20202;-70
2023/03/13 00:48:16;;;;;;;29.77;8.47;;;;;;;6.62;100.00;100270.69;5014349;28;20195;-70
2023/03/13 00:50:42;;;;;;;37.80;9.50;;;;;;;6.64;100.00;100276.69;5016880;28;20230;-70
2023/03/13 00:53:07;;;;;;;35.03;9.83;;;;;;;6.64;100.00;100269.06;5014713;28;20199;-69
2023/03/13 00:55:32;;;;;;;27.40;9.30;;;;;;;6.64;100.00;100267.38;5015776;28;20283;-68
2023/03/13 00:57:58;;;;;;;38.43;9.77;;;;;;;6.65;100.00;100269.13;5012359;28;20644;-71
2023/03/13 01:00:23;;;;;;;36.90;9.20;;;;;;;6.69;100.00;100257.31;5015675;28;20729;-69
2023/03/13 01:02:50;;;;;;;34.50;9.10;;;;;;;6.65;100.00;100251.31;5015332;28;20571;-71
2023/03/13 01:05:16;;;;;;;31.83;8.60;;;;;;;6.66;100.00;100249.59;5014967;28;20194;-69
2023/03/13 01:07:41;;;;;;;36.50;9.97;;;;;;;6.68;100.00;100243.72;5017880;28;20206;-70
2023/03/13 01:10:07;;;;;;;26.30;8.20;;;;;;;6.67;100.00;100238.59;5015536;28;20306;-72
2023/03/13 01:12:32;;;;;;;30.33;9.80;;;;;;;6.71;100.00;100231.09;5015445;28;20233;-70
2023/03/13 01:14:58;;;;;;;39.07;9.43;;;;;;;6.72;100.00;100225.19;5009039;28;20849;-68
2023/03/13 01:17:23;;;;;;;36.87;9.30;;;;;;;6.74;100.00;100217.59;5016756;28;20619;-69
2023/03/13 01:19:48;;;;;;;34.43;9.37;;;;;;;6.73;100.00;100218.44;5010571;28;20269;-69
2023/03/13 01:22:14;;;;;;;33.23;9.03;;;;;;;6.76;100.00;100218.47;5014946;28;20230;-69
2023/03/13 01:24:40;;;;;;;34.70;9.43;;;;;;;6.74;100.00;100205.75;5013820;28;20218;-69
2023/03/13 01:27:05;;;;;;;44.37;10.70;;;;;;;6.76;100.00;100206.63;5014102;28;20557;-70
2023/03/13 01:29:31;;;;;;;35.10;10.10;;;;;;;6.79;100.00;100199.09;5012868;28;20586;-68
2023/03/13 01:31:57;;;;;;;36.37;9.73;;;;;;;6.83;100.00;100193.25;5015371;28;20199;-70
2023/03/13 01:34:23;;;;;;;45.53;10.67;;;;;;;6.82;100.00;100193.19;5010114;28;20205;-71
2023/03/13 01:36:51;;;;;;;34.60;9.60;;;;;;;6.83;100.00;100188.16;5010568;28;20202;-71
2023/03/13 01:39:16;;;;;;;38.23;9.67;;;;;;;6.83;100.00;100180.53;5011111;28;20191;-70
2023/03/13 01:41:42;;;;;;;37.10;9.73;;;;;;;6.84;100.00;100169.53;5015290;28;20636;-72
2023/03/13 01:44:28;;;;;;;39.50;10.20;;;;;;;6.87;100.00;100161.94;5011119;28;20257;-70
2023/03/13 01:46:54;;;;;;;33.93;9.70;;;;;;;6.85;100.00;100157.63;5022274;28;20292;-72
2023/03/13 01:49:32;;;;;;;32.93;9.87;;;;;;;6.88;100.00;100148.41;5011692;28;20274;-71
2023/03/13 01:52:08;;;;;;;33.57;10.13;;;;;;;6.88;100.00;100145.88;5012537;28;20682;-71
2023/03/13 01:54:50;;;;;;;36.60;10.60;;;;;;;6.92;100.00;100142.56;5011590;28;20193;-71
2023/03/13 01:57:23;;;;;;;36.43;9.90;;;;;;;6.90;100.00;100135.69;5012985;28;20219;-69
2023/03/13 01:59:55;;;;;;;31.63;9.57;;;;;;;6.92;100.00;100124.75;5009543;28;20706;-71
2023/03/13 02:02:22;;;;;;;37.27;9.30;;;;;;;6.91;100.00;100119.63;5011937;28;20202;-69
2023/03/13 02:04:55;;;;;;;33.83;8.83;;;;;;;6.88;100.00;100112.78;5011409;28;20191;-69
2023/03/13 02:07:33;;;;;;;34.63;10.10;;;;;;;6.89;100.00;100100.91;5012564;28;20274;-69
2023/03/13 02:09:59;;;;;;;27.50;8.43;;;;;;;6.86;100.00;100088.97;5004388;28;20215;-70
2023/03/13 02:12:31;;;;;;;32.03;8.47;;;;;;;6.84;100.00;100084.69;5012843;28;20191;-70
2023/03/13 02:15:04;;;;;;;38.60;9.90;;;;;;;6.82;100.00;100084.66;5010552;28;20211;-70
2023/03/13 02:17:32;;;;;;;30.50;9.07;;;;;;;6.79;100.00;100076.97;5012517;28;20322;-70
2023/03/13 02:19:59;;;;;;;33.97;8.80;;;;;;;6.78;100.00;100079.47;5006576;28;20277;-69
2023/03/13 02:22:50;;;;;;;32.83;9.30;;;;;;;6.76;100.00;100070.94;5013023;28;20198;-72
2023/03/13 02:25:23;;;;;;;31.60;9.27;;;;;;;6.76;100.00;100061.63;5009430;28;20191;-69
2023/03/13 02:28:06;;;;;;;25.40;9.17;;;;;;;6.78;100.00;100061.66;5010522;28;20747;-70
2023/03/13 02:30:34;;;;;;;32.93;9.67;;;;;;;6.77;100.00;100055.72;5001973;28;20211;-69
2023/03/13 02:33:02;;;;;;;29.70;8.83;;;;;;;6.80;100.00;100057.44;5012751;28;20229;-70
2023/03/13 02:35:29;;;;;;;38.83;10.23;;;;;;;6.78;100.00;100054.03;5010231;28;20202;-69
2023/03/13 02:38:01;;;;;;;29.83;8.77;;;;;;;6.78;100.00;100046.41;5014155;28;20309;-69
2023/03/13 02:40:29;;;;;;;34.70;9.50;;;;;;;6.77;100.00;100045.53;5010288;28;20301;-69
2023/03/13 02:43:00;;;;;;;31.30;8.43;;;;;;;6.78;100.00;100044.69;5010615;28;20786;-69
2023/03/13 02:45:25;;;;;;;37.07;9.53;;;;;;;6.78;100.00;100041.31;5010457;28;20222;-70
2023/03/13 02:47:51;;;;;;;33.77;8.77;;;;;;;6.80;100.00;100035.44;5014361;28;20694;-69
2023/03/13 02:50:16;;;;;;;27.80;7.87;;;;;;;6.82;100.00;100032.94;5010374;28;20269;-69
2023/03/13 02:52:44;;;;;;;36.77;9.33;;;;;;;6.85;100.00;100032.97;5011737;28;20191;-69
2023/03/13 02:55:21;;;;;;;27.20;8.43;;;;;;;6.85;100.00;100020.25;5009769;28;20213;-70
2023/03/13 02:57:47;;;;;;;34.03;9.07;;;;;;;6.89;100.00;100022.03;5012829;28;20622;-69
2023/03/13 03:00:15;;;;;;;30.73;8.00;;;;;;;6.89;100.00;100017.81;5012595;28;20222;-70
2023/03/13 03:02:41;;;;;;;36.77;7.90;;;;;;;6.97;100.00;100013.75;5007878;28;20207;-68
2023/03/13 03:05:07;;;;;;;33.70;9.43;;;;;;;6.98;100.00;100012.03;5008816;28;20199;-69
2023/03/13 03:07:32;;;;;;;33.00;9.33;;;;;;;6.99;100.00;100001.91;5006439;28;20285;-69
2023/03/13 03:09:58;;;;;;;30.93;8.67;;;;;;;7.01;100.00;100001.94;5008902;28;20303;-67
2023/03/13 03:12:23;;;;;;;29.97;8.33;;;;;;;7.02;100.00;99994.34;5007853;28;20667;-69
2023/03/13 03:14:49;;;;;;;39.20;8.63;;;;;;;7.02;100.00;99996.00;5008858;28;20203;-69
2023/03/13 03:17:15;;;;;;;32.83;8.67;;;;;;;7.02;100.00;99980.75;5007540;28;20640;-68
2023/03/13 03:19:41;;;;;;;30.53;7.83;;;;;;;7.05;100.00;99979.09;5007195;28;20201;-70
2023/03/13 03:22:07;;;;;;;31.70;8.00;;;;;;;7.04;100.00;99976.56;5007524;28;20241;-70
2023/03/13 03:24:32;;;;;;;30.83;7.30;;;;;;;7.06;100.00;99978.28;5005531;28;20210;-68
2023/03/13 03:26:58;;;;;;;31.23;7.40;;;;;;;7.08;100.00;99970.66;5006766;28;20191;-68
2023/03/13 03:29:28;;;;;;;31.10;7.23;;;;;;;7.07;100.00;99969.81;5007462;28;20308;-68
2023/03/13 03:31:55;;;;;;;21.30;7.20;;;;;;;7.07;100.00;99957.09;5003894;28;20206;-68
2023/03/13 03:34:21;;;;;;;31.00;7.53;;;;;;;7.06;100.00;99942.66;5005531;28;20268;-69
2023/03/13 03:36:47;;;;;;;31.47;8.40;;;;;;;7.11;100.00;99941.06;5003171;28;20604;-69
2023/03/13 03:39:12;;;;;;;34.67;8.23;;;;;;;7.12;100.00;99936.81;5006481;28;20248;-69
2023/03/13 03:41:38;;;;;;;34.13;7.60;;;;;;;7.11;100.00;99932.56;5007441;28;20228;-69
2023/03/13 03:44:05;;;;;;;31.13;7.00;;;;;;;7.12;100.00;99926.63;5006103;28;20241;-69
2023/03/13 03:46:41;;;;;;;28.73;7.00;;;;;;;7.16;100.00;99915.69;5001952;28;20190;-69
2023/03/13 03:49:07;;;;;;;34.30;6.67;;;;;;;7.14;100.00;99907.16;5006869;28;20336;-69
2023/03/13 03:51:32;;;;;;;31.00;6.73;;;;;;;7.17;100.00;99899.56;5006782;28;20218;-70
2023/03/13 03:53:58;;;;;;;33.60;7.33;;;;;;;7.18;100.00;99891.97;5008800;28;20191;-69
2023/03/13 03:56:23;;;;;;;27.47;6.70;;;;;;;7.20;100.00;99897.94;5007011;28;20965;-69
2023/03/13 03:58:53;;;;;;;31.77;6.50;;;;;;;7.23;100.00;99884.41;5007706;28;20214;-68
2023/03/13 04:01:25;;;;;;;23.47;7.43;;;;;;;7.24;100.00;99875.94;5008106;28;20714;-70
2023/03/13 04:03:51;;;;;;;31.77;7.23;;;;;;;7.23;100.00;99875.06;4995301;28;20190;-69
2023/03/13 04:06:17;;;;;;;32.00;7.23;;;;;;;7.30;100.00;99873.50;5011324;28;20215;-71
2023/03/13 04:08:44;;;;;;;35.63;6.93;;;;;;;7.28;100.00;99872.63;5010865;28;20276;-69
2023/03/13 04:11:13;;;;;;;27.53;6.97;;;;;;;7.29;100.00;99865.00;5011961;28;20219;-70
2023/03/13 04:13:42;;;;;;;30.87;6.80;;;;;;;7.30;100.00;99856.53;5011487;28;20194;-69
2023/03/13 04:16:09;;;;;;;28.97;6.70;;;;;;;7.32;100.00;99849.75;5011426;28;20200;-70
2023/03/13 04:18:36;;;;;;;32.10;7.03;;;;;;;7.34;100.00;99844.69;5008803;28;20211;-71
2023/03/13 04:21:04;;;;;;;22.47;6.07;;;;;;;7.35;100.00;99841.31;5014162;28;20211;-71
2023/03/13 04:23:35;;;;;;;33.17;6.57;;;;;;;7.39;100.00;99840.53;5010682;28;20345;-74
2023/03/13 04:26:01;;;;;;;31.07;6.73;;;;;;;7.36;100.00;99826.06;5012016;28;20286;-69
2023/03/13 04:28:26;;;;;;;24.87;5.63;;;;;;;7.39;100.00;99825.25;5010823;28;20268;-70
2023/03/13 04:30:56;;;;;;;30.57;6.83;;;;;;;7.42;100.00;99807.50;5014322;28;20262;-71
2023/03/13 04:33:44;;;;;;;28.70;7.27;;;;;;;7.46;100.00;99799.06;5008321;28;20199;-71
2023/03/13 04:36:24;;;;;;;23.87;6.30;;;;;;;7.46;100.00;99796.53;5011855;28;20761;-70
2023/03/13 04:38:50;;;;;;;25.30;6.13;;;;;;;7.44;100.00;99786.31;5011994;28;20227;-71
2023/03/13 04:41:35;;;;;;;26.53;6.07;;;;;;;7.45;100.00;99775.28;5013214;28;20230;-71
2023/03/13 04:44:18;;;;;;;23.37;6.30;;;;;;;7.47;100.00;99775.31;5011536;28;20202;-72
2023/03/13 04:46:55;;;;;;;24.97;5.93;;;;;;;7.53;100.00;99763.53;5009836;28;20332;-72
2023/03/13 04:49:47;;;;;;;23.03;6.03;;;;;;;7.50;100.00;99755.81;5010922;28;20206;-71
2023/03/13 04:52:32;;;;;;;25.60;6.03;;;;;;;7.50;100.00;99745.63;5012064;28;20207;-71
2023/03/13 04:55:16;;;;;;;24.63;5.40;;;;;;;7.52;100.00;99730.38;5011079;28;20201;-70
2023/03/13 04:57:53;;;;;;;22.90;6.17;;;;;;;7.50;100.00;99734.59;5010747;28;20206;-70
2023/03/13 05:00:39;;;;;;;28.93;7.00;;;;;;;7.51;100.00;99719.31;5009534;28;20211;-69
2023/03/13 05:03:23;;;;;;;33.00;6.77;;;;;;;7.55;100.00;99707.50;5013046;28;20202;-69
2023/03/13 05:06:09;;;;;;;26.53;5.73;;;;;;;7.53;100.00;99701.53;5007717;28;20206;-70
2023/03/13 05:08:38;;;;;;;25.13;5.83;;;;;;;7.54;100.00;99690.50;5012161;28;20207;-70
2023/03/13 05:11:23;;;;;;;23.07;5.73;;;;;;;7.55;100.00;99682.88;5013673;28;20766;-71
2023/03/13 05:14:12;;;;;;;22.00;5.27;;;;;;;7.55;100.00;99677.78;5005295;28;20190;-69
2023/03/13 05:16:48;;;;;;;30.60;5.90;;;;;;;7.54;100.00;99665.03;5011412;28;20778;-70
2023/03/13 05:19:32;;;;;;;26.90;6.30;;;;;;;7.51;100.00;99654.81;5010565;28;20713;-69
2023/03/13 05:22:05;;;;;;;24.13;5.83;;;;;;;7.50;100.00;99646.31;5013298;28;20661;-69
2023/03/13 05:24:53;;;;;;;30.70;6.30;;;;;;;7.49;100.00;99646.28;5011346;28;20286;-69
2023/03/13 05:27:41;;;;;;;30.90;5.70;;;;;;;7.46;100.00;99624.19;5013188;28;20202;-71
2023/03/13 05:30:26;;;;;;;21.53;5.73;;;;;;;7.46;100.00;99626.75;5009321;28;20215;-68
2023/03/13 05:33:03;;;;;;;18.63;5.00;;;;;;;7.46;100.00;99614.00;5009967;28;20203;-70
2023/03/13 05:35:46;;;;;;;29.37;6.67;;;;;;;7.47;100.00;99625.91;5010888;28;21850;-72
2023/03/13 05:38:29;;;;;;;33.63;6.83;;;;;;;7.46;100.00;99616.56;5011794;28;20217;-67
2023/03/13 05:41:15;;;;;;;29.73;6.40;;;;;;;7.47;100.00;99617.41;5018258;28;20688;-68
2023/03/13 05:43:59;;;;;;;29.00;6.37;;;;;;;7.46;100.00;99621.66;5005952;28;20672;-68
2023/03/13 05:46:43;;;;;;;22.40;6.17;;;;;;;7.47;100.00;99623.34;5012454;28;20209;-68
2023/03/13 05:49:29;;;;;;;24.90;5.40;;;;;;;7.50;100.00;99613.22;5009863;28;20294;-68
2023/03/13 05:52:03;;;;;;;27.30;5.73;;;;;;;7.58;100.00;99601.41;5012552;28;20621;-70
2023/03/13 05:54:45;;;;;;;24.17;6.00;;;;;;;7.65;100.00;99604.91;4995511;28;20191;-71
2023/03/13 05:57:22;;;;;;;20.97;5.47;;;;;;;7.65;100.00;99590.44;5009081;28;20723;-71
2023/03/13 06:00:04;;;;;;;23.10;5.33;;;;;;;7.67;100.00;99582.81;5003084;28;20207;-68
2023/03/13 06:02:48;;;;;;;17.20;5.47;;;;;;;7.69;100.00;99584.53;5012088;28;20282;-72
2023/03/13 06:05:19;;;;;;;21.87;5.67;;;;;;;7.68;100.00;99575.19;5008892;28;21109;-68
2023/03/13 06:07:45;;;;;;;22.20;5.07;;;;;;;7.73;100.00;99568.47;5011147;28;20195;-73
2023/03/13 06:10:11;;;;;;;16.23;4.73;;;;;;;7.76;100.00;99567.63;5009677;28;20230;-70
2023/03/13 06:12:37;;;;;;;16.40;5.70;;;;;;;7.77;100.00;99564.25;5010012;28;20868;-69
2023/03/13 06:15:05;;;;;;;13.43;4.20;;;;;;;7.77;100.00;99557.47;5009848;28;20198;-71
2023/03/13 06:17:51;;;;;;;18.83;4.57;;;;;;;7.82;100.00;99560.91;5013019;28;21040;-70
2023/03/13 06:20:16;;;;;;;15.17;4.83;;;;;;;7.85;100.00;99558.41;5009262;28;20217;-70
2023/03/13 06:22:42;;;;;;;19.67;5.23;;;;;;;7.89;100.00;99542.31;5011272;28;20699;-71
2023/03/13 06:25:08;;;;;;;18.80;4.50;;;;;;;7.92;100.00;99547.41;5010213;28;20183;-69
2023/03/13 06:27:34;;;;;;;9.33;4.17;;;;;;;7.91;100.00;99542.28;5013537;28;20560;-70
2023/03/13 06:29:59;;;;;;;13.00;4.10;;;;;;;7.95;100.00;99532.16;5009496;28;20214;-71
2023/03/13 06:32:26;;;;;;;11.77;3.73;;;;;;;7.97;100.00;99530.44;5012300;28;20199;-70
2023/03/13 06:34:52;;;;;;;10.53;3.90;;;;;;;7.97;100.00;99545.75;5011400;28;20191;-71
2023/03/13 06:37:17;;;;;;;13.73;4.87;;;;;;;7.98;100.00;99537.28;5012470;28;20750;-74
2023/03/13 06:39:43;;;;;;;10.17;3.70;;;;;;;8.02;100.00;99535.59;5010604;28;20199;-70
2023/03/13 06:42:08;;;;;;;9.23;3.57;;;;;;;8.00;100.00;99519.44;5011422;28;21950;-71
2023/03/13 06:44:34;;;;;;;11.83;3.90;;;;;;;8.00;100.00;99510.09;5014938;28;20203;-70
2023/03/13 06:46:59;;;;;;;9.97;4.13;;;;;;;8.00;100.00;99514.31;5011169;28;20195;-71
2023/03/13 06:49:25;;;;;;;15.47;4.30;;;;;;;8.00;100.00;99499.91;5012847;28;20199;-69
2023/03/13 06:51:50;;;;;;;9.57;3.43;;;;;;;8.04;100.00;99496.53;4993723;28;20304;-70
2023/03/13 06:54:15;;;;;;;8.67;3.57;;;;;;;8.10;100.00;99486.38;5009997;28;20203;-70
2023/03/13 06:56:41;;;;;;;9.17;3.30;;;;;;;8.19;100.00;99480.47;5011226;28;20202;-69
2023/03/13 06:59:07;;;;;;;8.50;3.27;;;;;;;8.23;100.00;99466.94;5012404;28;20322;-71
2023/03/13 07:01:32;;;;;;;7.77;3.17;;;;;;;8.22;100.00;99453.38;5011982;28;20217;-70
2023/03/13 07:03:57;;;;;;;10.37;3.30;;;;;;;8.22;100.00;99457.59;5012850;28;20222;-70
2023/03/13 07:06:23;;;;;;;6.87;3.50;;;;;;;8.21;100.00;99479.69;5011171;28;20190;-70
2023/03/13 07:08:48;;;;;;;8.17;3.40;;;;;;;8.22;100.00;99458.47;5012705;28;20269;-70
2023/03/13 07:11:15;;;;;;;9.93;3.40;;;;;;;8.21;100.00;99473.75;5010025;28;20222;-70
2023/03/13 07:13:40;;;;;;;6.77;3.70;;;;;;;8.22;100.00;99457.59;5014514;28;20210;-70
2023/03/13 07:16:08;;;;;;;9.87;3.73;;;;;;;8.24;100.00;99455.94;5007721;28;20730;-69
2023/03/13 07:18:35;;;;;;;9.10;3.10;;;;;;;8.29;100.00;99442.34;5015033;28;20211;-69
2023/03/13 07:21:05;;;;;;;6.63;3.27;;;;;;;8.31;100.00;99438.13;5009178;28;20226;-69
2023/03/13 07:23:31;;;;;;;8.90;3.93;;;;;;;8.29;100.00;99434.69;5015184;28;20231;-70
2023/03/13 07:26:03;;;;;;;6.77;3.67;;;;;;;8.29;100.00;99439.78;5007940;28;20190;-69
2023/03/13 07:28:30;;;;;;;8.27;3.53;;;;;;;8.29;100.00;99434.69;5014312;28;20573;-69
2023/03/13 07:31:13;;;;;;;7.50;4.00;;;;;;;8.32;100.00;99431.31;5010605;28;20223;-70
2023/03/13 07:33:39;;;;;;;7.50;3.23;;;;;;;8.33;100.00;99422.81;5015086;28;20191;-69
2023/03/13 07:36:05;;;;;;;7.53;3.40;;;;;;;8.35;100.00;99418.56;5009327;28;20559;-69
2023/03/13 07:38:31;;;;;;;9.63;4.53;;;;;;;8.35;100.00;99416.03;5015054;28;20696;-69
2023/03/13 07:40:57;;;;;;;7.37;3.70;;;;;;;8.36;100.00;99417.72;5008710;28;20242;-69
2023/03/13 07:43:24;;;;;;;8.23;4.30;;;;;;;8.38;100.00;99421.16;5010294;28;20209;-69
2023/03/13 07:45:50;;;;;;;6.93;3.90;;;;;;;8.40;100.00;99406.69;5011804;28;20210;-68
2023/03/13 07:48:16;;;;;;;6.87;4.03;;;;;;;8.42;100.00;99399.91;5011592;28;20660;-70
2023/03/13 07:50:42;;;;;;;10.37;4.50;;;;;;;8.42;100.00;99403.31;5013167;28;20217;-68
2023/03/13 07:53:07;;;;;;;14.40;4.20;;;;;;;8.44;100.00;99406.72;5011424;28;20183;-70
2023/03/13 07:55:33;;;;;;;10.63;4.67;;;;;;;8.47;100.00;99400.78;5011259;28;20622;-70
2023/03/13 07:57:58;;;;;;;8.17;4.27;;;;;;;8.48;100.00;99408.44;4991629;28;20293;-69
2023/03/13 08:00:24;;;;;;;11.03;4.50;;;;;;;8.51;100.00;99397.38;5012454;28;20261;-69
2023/03/13 08:02:49;;;;;;;9.70;4.93;;;;;;;8.53;100.00;99404.19;5010939;28;20701;-70
2023/03/13 08:05:14;;;;;;;8.30;4.73;;;;;;;8.57;100.00;99400.81;5011003;28;20186;-69
2023/03/13 08:07:42;;;;;;;8.70;4.47;;;;;;;8.61;100.00;99396.59;5011529;28;20254;-69
2023/03/13 08:10:08;;;;;;;11.83;5.03;;;;;;;8.66;100.00;99400.84;5009790;28;20215;-72
2023/03/13 08:12:33;;;;;;;11.97;4.90;;;;;;;8.67;100.00;99386.41;5012297;28;20215;-70
2023/03/13 08:14:59;;;;;;;11.03;5.33;;;;;;;8.72;100.00;99384.72;5013388;28;20230;-69
2023/03/13 08:17:24;;;;;;;11.73;5.33;;;;;;;8.80;100.00;99380.50;5008439;28;20334;-68
2023/03/13 08:19:50;;;;;;;13.47;5.40;;;;;;;8.86;100.00;99380.50;5013528;28;20202;-69
2023/03/13 08:22:15;;;;;;;8.73;5.37;;;;;;;8.91;100.00;99377.13;5007815;28;20195;-71
2023/03/13 08:24:40;;;;;;;8.33;5.43;;;;;;;9.00;100.00;99373.72;5015405;28;20209;-69
2023/03/13 08:27:06;;;;;;;9.17;5.90;;;;;;;9.03;100.00;99373.75;4992572;28;20194;-69
2023/03/13 08:29:31;;;;;;;9.10;5.77;;;;;;;9.08;100.00;99367.78;5010126;28;20734;-68
2023/03/13 08:31:57;;;;;;;12.27;6.10;;;;;;;9.17;100.00;99365.22;5006313;28;20232;-68
2023/03/13 08:34:22;;;;;;;8.77;6.53;;;;;;;9.31;100.00;99363.53;5009190;28;20652;-69
2023/03/13 08:36:47;;;;;;;10.67;6.67;;;;;;;9.37;100.00;99363.56;5008986;28;20199;-68
2023/03/13 08:39:15;;;;;;;15.03;6.33;;;;;;;9.54;100.00;99353.31;5010504;28;20545;-67
2023/03/13 08:41:41;;;;;;;10.13;7.30;;;;;;;9.70;100.00;99348.19;5012259;28;20218;-68
2023/03/13 08:44:10;;;;;;;9.93;6.90;;;;;;;9.82;100.00;99344.78;5011067;28;20578;-71
2023/03/13 08:46:35;;;;;;;13.33;7.93;;;;;;;9.95;100.00;99349.84;5011368;28;20258;-68
2023/03/13 08:49:03;;;;;;;13.90;8.33;;;;;;;10.17;100.00;99345.53;5014301;28;20191;-70
2023/03/13 08:51:28;;;;;;;12.20;7.73;;;;;;;10.31;100.00;99341.22;5013176;28;20655;-70
2023/03/13 08:53:55;;;;;;;10.77;7.53;;;;;;;10.58;100.00;99325.75;5014360;28;20225;-69
2023/03/13 08:56:23;;;;;;;10.90;8.13;;;;;;;10.70;100.00;99326.53;5016672;28;20213;-73
2023/03/13 08:58:50;;;;;;;13.77;8.50;;;;;;;10.94;100.00;99326.41;5012954;28;20218;-71
2023/03/13 09:01:17;;;;;;;10.23;8.13;;;;;;;11.04;100.00;99325.47;5016089;28;20584;-70
2023/03/13 09:03:42;;;;;;;14.33;8.80;;;;;;;11.10;100.00;99325.41;5013657;28;20634;-70
2023/03/13 09:06:09;;;;;;;9.43;7.27;;;;;;;11.19;100.00;99319.38;5016153;28;20233;-72
2023/03/13 09:08:36;;;;;;;12.00;7.83;;;;;;;11.36;100.00;99328.63;5013950;28;20329;-71
2023/03/13 09:11:12;;;;;;;10.50;8.00;;;;;;;11.45;100.00;99307.19;5009624;28;20215;-69
2023/03/13 09:13:40;;;;;;;9.33;6.87;;;;;;;11.49;100.00;99307.16;5015089;28;20671;-71
2023/03/13 09:16:09;;;;;;;9.43;7.13;;;;;;;11.53;100.00;99307.97;5016196;28;20206;-70
2023/03/13 09:18:35;;;;;;;11.73;7.53;;;;;;;11.52;100.00;99307.13;5014016;28;20254;-70
2023/03/13 09:21:04;;;;;;;10.07;7.03;;;;;;;11.61;100.00;99298.53;5012102;28;20218;-70
2023/03/13 09:23:29;;;;;;;13.27;6.97;;;;;;;11.66;100.00;99304.47;5017212;28;20234;-72
2023/03/13 09:25:56;;;;;;;9.40;7.80;;;;;;;11.75;100.00;99312.91;5014344;28;20226;-71
2023/03/13 09:28:23;;;;;;;9.20;7.67;;;;;;;11.80;100.00;99300.88;5010558;28;20195;-70
2023/03/13 09:30:48;;;;;;;11.07;8.03;;;;;;;11.85;100.00;99288.84;5010531;28;20222;-70
2023/03/13 09:33:18;;;;;;;9.07;7.07;;;;;;;11.88;100.00;99288.84;5016080;28;20558;-72
2023/03/13 09:35:49;;;;;;;10.10;7.37;;;;;;;11.93;100.00;99292.19;5011106;28;20220;-70
2023/03/13 09:38:19;;;;;;;7.87;6.70;;;;;;;12.01;100.00;99287.84;5007704;28;20699;-70
2023/03/13 09:40:47;;;;;;;9.03;6.90;;;;;;;12.07;100.00;99284.34;5012290;28;20297;-71
2023/03/13 09:43:59;;;;;;;9.17;7.17;;;;;;;12.08;100.00;99275.78;5013378;28;20211;-69
2023/03/13 09:46:56;;;;;;;8.70;6.83;;;;;;;12.08;100.00;99284.31;5015461;28;20261;-69
2023/03/13 09:49:30;;;;;;;9.87;7.13;;;;;;;12.14;100.00;99284.25;5010828;28;20206;-68
2023/03/13 09:52:04;;;;;;;9.27;6.70;;;;;;;12.19;100.00;99299.59;5009918;28;20242;-69
2023/03/13 09:54:51;;;;;;;7.97;6.87;;;;;;;12.21;100.00;99306.41;5011983;28;20329;-68
2023/03/13 09:57:23;;;;;;;12.07;7.07;;;;;;;12.28;100.00;99286.66;5013314;28;20214;-68
2023/03/13 09:59:56;;;;;;;8.90;7.50;;;;;;;12.31;100.00;99299.44;5009003;28;20203;-68
2023/03/13 10:02:33;;;;;;;9.57;7.10;;;;;;;12.42;100.00;99303.59;5015595;28;20202;-68
2023/03/13 10:05:09;;;;;;;9.90;7.10;;;;;;;12.53;100.00;99298.31;5011188;28;20194;-70
2023/03/13 10:07:35;;;;;;;7.73;6.83;;;;;;;12.57;100.00;99300.81;5010059;28;20199;-68
2023/03/13 10:10:02;;;;;;;9.93;6.43;;;;;;;12.69;100.00;99321.19;5011169;28;20225;-69
2023/03/13 10:12:36;;;;;;;9.40;6.40;;;;;;;12.94;100.00;99321.66;5013220;28;20191;-71
2023/03/13 10:15:36;;;;;;;10.17;6.40;;;;;;;13.10;100.00;99310.34;5013380;28;20203;-70
2023/03/13 10:18:22;;;;;;;7.37;5.93;;;;;;;13.08;100.00;99306.09;5013771;28;20565;-70
2023/03/13 10:20:52;;;;;;;10.40;5.67;;;;;;;13.05;100.00;99312.13;5015006;28;20225;-71
2023/03/13 10:23:31;;;;;;;6.73;6.07;;;;;;;13.07;100.00;99301.84;5012135;28;20195;-77
2023/03/13 10:25:57;;;;;;;5.87;5.20;;;;;;;13.10;100.00;99317.19;5009617;28;20198;-70
2023/03/13 10:28:23;;;;;;;9.13;5.93;;;;;;;13.00;100.00;99321.63;5011878;28;20254;-70
2023/03/13 10:30:53;;;;;;;8.63;6.33;;;;;;;12.89;100.00;99323.47;5008820;28;20225;-70
2023/03/13 10:33:22;;;;;;;6.03;5.13;;;;;;;12.80;100.00;99321.00;5010924;28;20199;-69
2023/03/13 10:36:09;;;;;;;9.10;5.97;;;;;;;12.81;100.00;99340.72;5009228;28;20914;-69
2023/03/13 10:38:51;;;;;;;7.83;5.70;;;;;;;12.78;100.00;99333.91;5012642;28;20294;-69
2023/03/13 10:41:29;;;;;;;6.53;5.37;;;;;;;12.85;100.00;99332.94;5013236;28;20711;-72
2023/03/13 10:44:00;;;;;;;6.80;5.27;;;;;;;13.70;100.00;99339.31;5012564;28;20599;-71
2023/03/13 10:46:28;;;;;;;5.20;3.80;;;;;;;16.36;100.00;99322.00;5015417;28;20297;-70
2023/03/13 10:48:56;;;;;;;3.77;3.10;;;;;;;17.75;100.00;99313.34;5010774;28;20237;-69
2023/03/13 10:51:24;;;;;;;5.43;2.70;;;;;;;20.64;100.00;99162.84;5012804;28;20256;-70
2023/03/13 10:53:50;;;;;;;2.93;2.40;;;;;;;20.40;100.00;99070.41;5014200;28;20720;-69
2023/03/13 10:56:25;;;;;;;5.40;2.80;;;;;;;19.69;100.00;99136.13;5012887;28;20186;-71
2023/03/13 10:58:52;;;;;;;4.07;2.57;;;;;;;18.82;100.00;99217.72;5010602;28;20214;-71
2023/03/13 11:01:28;;;;;;;4.40;2.83;;;;;;;16.92;100.00;99388.44;5006189;28;20268;-75
2023/03/13 11:03:56;;;;;;;4.87;3.50;;;;;;;16.36;100.00;99332.34;5011173;28;20321;-70
2023/03/13 11:06:33;;;;;;;5.80;3.10;;;;;;;15.97;100.00;99319.69;5011141;28;20219;-70
2023/03/13 11:09:02;;;;;;;6.97;3.83;;;;;;;15.42;100.00;99324.56;5010584;28;20195;-69
2023/03/13 11:11:29;;;;;;;5.13;3.90;;;;;;;15.10;100.00;99325.28;5014636;28;20219;-69
2023/03/13 11:14:07;;;;;;;4.53;3.80;;;;;;;14.82;100.00;99321.63;5011241;28;20199;-69
2023/03/13 11:16:37;;;;;;;6.87;4.03;;;;;;;14.69;100.00;99321.94;5013113;28;20198;-68
2023/03/13 11:19:27;;;;;;;5.07;4.10;;;;;;;14.55;100.00;99317.06;4992645;28;20264;-69
2023/03/13 11:22:11;;;;;;;6.33;4.80;;;;;;;14.36;100.00;99330.38;5009087;28;20769;-69
2023/03/13 11:24:54;;;;;;;5.50;3.97;;;;;;;14.53;100.00;99311.13;5011384;28;20183;-70
2023/03/13 11:27:43;;;;;;;4.57;3.83;;;;;;;14.55;100.00;99303.38;5009630;28;20696;-68
2023/03/13 11:30:43;;;;;;;6.47;4.00;;;;;;;14.78;100.00;99296.81;5010437;28;20326;-68
2023/03/13 11:33:33;;;;;;;8.43;4.37;;;;;;;14.50;100.00;99290.56;5012222;28;20218;-70
2023/03/13 11:36:07;;;;;;;4.47;3.60;;;;;;;14.58;100.00;99291.25;5006792;28;20221;-73
2023/03/13 11:38:39;;;;;;;5.03;3.40;;;;;;;16.87;100.00;99267.94;5013434;28;20219;-71
2023/03/13 11:41:27;;;;;;;3.67;3.27;;;;;;;15.50;100.00;99289.06;5010856;28;20219;-73